Aérodrome :
LOGIN :

S'inscrire | Disclaimer

   EN    FR    IT 

 










Légende :    VFR   VFR Marginal   IFR   IFR Intensif   IFR Très Intensif
Visi : 
Plafond : 
>= 8 km
>= 3000ft
5 à 8 km
1000 à 3000 ft
1500m à 5 km
500 à 1000 ft
800 à 1500m
200 à 500 ft
< 800m
< 200 ft
Symboles :   Orages  Brouillard  Fortes neiges  Fortes précipitations  Vent > 20 kt
SIGMETs :   Divers  Orages  Givrage  Turbulence  Onde Orograph.  Cendres Volcan.







- Altitude de l'aérodrome : 468 ft
- Code IATA : GRO


LEGE - Girona Costa Brava

DERNIER METAR :
  • 222130Z 21006KT 9999 FEW025 10/08 Q1009

METARs EXPIRÉS :
  • 222100Z 20006KT 9999 FEW025 10/08 Q1009
  • 222030Z 19005KT CAVOK 10/08 Q1010
  • 222000Z 20009KT CAVOK 11/08 Q1010
  • 221930Z 20012KT CAVOK 12/08 Q1009
  • 221900Z 20013KT CAVOK 12/07 Q1009

TAF TAF LEGE
Valide du 22 à 18h jusqu'au 23 à 18h UTC


221700Z 2218/2318 18013KT 9999 SCT010 SCT025 TX19/2313Z TN05/2306Z
TEMPO 2224/2308 VRB04KT
PROB40
TEMPO 2223/2310 4000 SHRA BKN014 FEW030TCU
Pas de NOTAMs connus pour ce terrain.
2 SIGMETs publiés pour la FIR Barcelona (LECB) :
 
Orages noyés dans la masse
LECB SIGMET 2 VALID 222200/222330 LEVA
LECB BARCELONA FIR/UIR EMBD TS OBS AT 2151Z WI N4240 W00002 - N4130 W00020 - N4130 E00030 - N4240 E00110 TOP FL260 MOV ENE NC=
Orages noyés dans la masse
LECB SIGMET 1 VALID 221951/222200 LEVA
LECB BARCELONA FIR/UIR EMBD TS OBS AT 1951Z W OF LINE N4240 E00030 - N4110 W00010 TOP FL260 MOV ENE NC=



MET'MAP, la Météo Aéronautique d'un coup d'oeil ! - Copyright ORBIFLY Décembre 2007 - Disclaimer

ORBIFLY MET'MAP TEAM :

Programmation & Développement : Alexandra Zaïnal
Conception & Développement : Baudouin d'Aumeries
Co-Programmation & Développement : Marc-Olivier Méhu
Soutien technique & logistique : Manuel Goepfert

Contact : metmap@orbifly.com




SOURCES & CREDITS :

   NOAA